Justice — WDG2184 — position and weather

sailwx.info

Track history (hours):
 
Tides and Currents Weather Stations Pressure Air Temp Water Temp Dewpoint Dewpoint Depression Visibility Wind Speed Wind Dir Waves Ship Positions

Justice

Owner: Boston Towing & Transportation, Boston, MA. More information available from US FCC via Universal Licensing System and Coast Guard Vessel Documentation Center.

Last reported at 2015-Aug-03 12:29 UTC. Time now 2015-Aug-03 13:08 UTC.
Position N 42°21' W 071°01'.

Length 30 m; draft 5.8 m.

Type: Tug. MMSI: 367513010.

Date/timePositionNaut miles runAvg speedWind from/ knotsBaromVisibWave heightAir tempDewpointWater temp
2015-Aug-03 12:29N 42°21' W 071°01'2 2.5
2015-Aug-03 11:33N 42°23' W 071°03'1 0.9
2015-Aug-03 10:33N 42°23' W 071°02'1 0.8
2015-Aug-03 09:33N 42°23' W 071°03'1 1.4
2015-Aug-03 08:34N 42°24' W 071°01'0 0.1
2015-Aug-03 06:33N 42°24' W 071°01'2 1.5
2015-Aug-03 05:33N 42°23' W 071°03'0 0.0
2015-Aug-03 04:33N 42°23' W 071°03'0 0.0
2015-Aug-03 03:33N 42°23' W 071°03'0 0.0
2015-Aug-02 22:31N 42°23' W 071°03'0 0.2
2015-Aug-02 21:15N 42°23' W 071°03'0 0.3
2015-Aug-02 20:30N 42°23' W 071°03'2 0.3
2015-Aug-02 15:04N 42°21' W 071°02'2 0.9
2015-Aug-02 13:19N 42°23' W 071°03'0 0.0
2015-Aug-02 12:33N 42°23' W 071°03'2 0.5
2015-Aug-02 09:03N 42°24' W 071°01'2 3.1
2015-Aug-02 08:33N 42°23' W 071°03'0 0.2
2015-Aug-02 07:24N 42°23' W 071°03'0 0.0
2015-Aug-02 05:17N 42°23' W 071°03'0 0.0
2015-Aug-02 04:33N 42°23' W 071°03'3 2.6
2015-Aug-02 03:25N 42°20' W 071°00'3 1.6
2015-Aug-02 01:18N 42°23' W 071°03'0 0.2
2015-Aug-02 00:14N 42°23' W 071°03'3 0.9
2015-Aug-01 21:15N 42°21' W 071°01'1 0.6
2015-Aug-01 19:15N 42°21' W 071°02'2 2.1
2015-Aug-01 18:30N 42°23' W 071°03'0 0.0
2015-Aug-01 17:28N 42°23' W 071°03'0 0.0
2015-Aug-01 16:33N 42°23' W 071°03'0 0.0
2015-Aug-01 15:15N 42°23' W 071°03'0 0.0
2015-Aug-01 10:19N 42°23' W 071°03'0 0.6
2015-Aug-01 09:33N 42°23' W 071°03'0 0.0
2015-Aug-01 06:14N 42°23' W 071°03'1 0.2
2015-Aug-01 02:33N 42°23' W 071°02'2 0.7
2015-Aug-01 00:18N 42°22' W 071°02'1 0.4
2015-Jul-31 21:22N 42°23' W 071°03'0 0.0
2015-Jul-31 20:19N 42°23' W 071°03'0 0.0
2015-Jul-31 19:31N 42°23' W 071°03'0 0.0
2015-Jul-31 18:33N 42°23' W 071°03'0 0.0
2015-Jul-31 17:32N 42°23' W 071°03'1 0.6
2015-Jul-31 16:25N 42°23' W 071°02'1 0.8
2015-Jul-31 15:33N 42°23' W 071°03'1 0.5
2015-Jul-31 13:25N 42°23' W 071°01'3 2.4
2015-Jul-31 12:22N 42°21' W 071°01'1 0.6
2015-Jul-31 11:33N 42°21' W 071°02'2 2.2
2015-Jul-31 10:33N 42°23' W 071°03'0 0.2
2015-Jul-31 09:33N 42°23' W 071°03'0 0.0
2015-Jul-31 08:33N 42°23' W 071°03'2 2.5
2015-Jul-31 07:33N 42°21' W 071°01'2 2.4
2015-Jul-31 06:33N 42°20' W 070°58'4 2.0
2015-Jul-31 04:26N 42°23' W 071°03'0 0.1
2015-Jul-31 01:20N 42°23' W 071°03'0 0.2
2015-Jul-30 23:24N 42°23' W 071°03'1 0.2
2015-Jul-30 18:31N 42°23' W 071°03'0 0.0
2015-Jul-30 07:33N 42°23' W 071°04'0 0.0
2015-Jul-29 18:22N 42°23' W 071°04'1 0.2
2015-Jul-29 13:33N 42°23' W 071°03'0 0.1
2015-Jul-29 05:33N 42°23' W 071°03'0 0.1
2015-Jul-29 01:33N 42°23' W 071°03'0 0.1
2015-Jul-28 22:10N 42°23' W 071°03'0 0.2
2015-Jul-28 20:33N 42°23' W 071°03'1 0.3
2015-Jul-28 18:32N 42°23' W 071°04'1 0.2
2015-Jul-28 15:05N 42°23' W 071°03'0 0.0
2015-Jul-28 13:19N 42°23' W 071°03'0 0.0
2015-Jul-28 12:24N 42°23' W 071°03'1 0.2
2015-Jul-28 10:13N 42°23' W 071°03'0 0.3
2015-Jul-28 09:34N 42°23' W 071°03'0 0.1
2015-Jul-28 08:13N 42°23' W 071°03'1 0.1
2015-Jul-28 03:32N 42°22' W 071°03'0 0.2
2015-Jul-28 01:31N 42°23' W 071°03'0 0.0
2015-Jul-28 00:31N 42°23' W 071°03'0 0.0
2015-Jul-27 17:29N 42°23' W 071°03'0 0.0
2015-Jul-27 04:15N 42°23' W 071°03'1 1.4
2015-Jul-27 03:15N 42°24' W 071°01'1 1.4
2015-Jul-27 02:20N 42°23' W 071°03'0 0.5
2015-Jul-27 01:33N 42°23' W 071°03'0 0.2
2015-Jul-27 00:31N 42°23' W 071°03'2 1.6
2015-Jul-26 23:31N 42°22' W 071°03'1 0.5
2015-Jul-26 21:30N 42°23' W 071°03'1 0.5
2015-Jul-26 19:32N 42°22' W 071°03'1 0.1
2015-Jul-26 15:08N 42°21' W 071°02'2 4.2
2015-Jul-26 14:33N 42°23' W 071°04'2 0.7
2015-Jul-26 11:33N 42°21' W 071°02'1 0.5
2015-Jul-26 08:33N 42°23' W 071°03'1 1.0
2015-Jul-26 07:33N 42°23' W 071°04'1 0.1
2015-Jul-25 20:26N 42°23' W 071°03'1 1.0
2015-Jul-25 19:14N 42°22' W 071°02'2 0.9
2015-Jul-25 17:27N 42°23' W 071°03'0 0.0
2015-Jul-25 04:26N 42°23' W 071°03'0 0.0
2015-Jul-25 00:12N 42°23' W 071°03'  
Track history (hours):
 
Tides and Currents Weather Stations Pressure Air Temp Water Temp Dewpoint Dewpoint Depression Visibility Wind Speed Wind Dir Waves Ship Positions

Justice

Owner: Boston Towing & Transportation, Boston, MA. More information available from US FCC via Universal Licensing System and Coast Guard Vessel Documentation Center.

Last reported at 2015-Aug-03 12:29 UTC. Time now 2015-Aug-03 13:08 UTC.
Position N 42°21' W 071°01'.

Length 30 m; draft 5.8 m.

Type: Tug. MMSI: 367513010.

Date/timePositionNaut miles runAvg speedWind from/ knotsBaromVisibWave heightAir tempDewpointWater temp
2015-Aug-03 12:29N 42°21' W 071°01'2 2.5
2015-Aug-03 11:33N 42°23' W 071°03'1 0.9
2015-Aug-03 10:33N 42°23' W 071°02'1 0.8
2015-Aug-03 09:33N 42°23' W 071°03'1 1.4
2015-Aug-03 08:34N 42°24' W 071°01'0 0.1
2015-Aug-03 06:33N 42°24' W 071°01'2 1.5
2015-Aug-03 05:33N 42°23' W 071°03'0 0.0
2015-Aug-03 04:33N 42°23' W 071°03'0 0.0
2015-Aug-03 03:33N 42°23' W 071°03'0 0.0
2015-Aug-02 22:31N 42°23' W 071°03'0 0.2
2015-Aug-02 21:15N 42°23' W 071°03'0 0.3
2015-Aug-02 20:30N 42°23' W 071°03'2 0.3
2015-Aug-02 15:04N 42°21' W 071°02'2 0.9
2015-Aug-02 13:19N 42°23' W 071°03'0 0.0
2015-Aug-02 12:33N 42°23' W 071°03'2 0.5
2015-Aug-02 09:03N 42°24' W 071°01'2 3.1
2015-Aug-02 08:33N 42°23' W 071°03'0 0.2
2015-Aug-02 07:24N 42°23' W 071°03'0 0.0
2015-Aug-02 05:17N 42°23' W 071°03'0 0.0
2015-Aug-02 04:33N 42°23' W 071°03'3 2.6
2015-Aug-02 03:25N 42°20' W 071°00'3 1.6
2015-Aug-02 01:18N 42°23' W 071°03'0 0.2
2015-Aug-02 00:14N 42°23' W 071°03'3 0.9
2015-Aug-01 21:15N 42°21' W 071°01'1 0.6
2015-Aug-01 19:15N 42°21' W 071°02'2 2.1
2015-Aug-01 18:30N 42°23' W 071°03'0 0.0
2015-Aug-01 17:28N 42°23' W 071°03'0 0.0
2015-Aug-01 16:33N 42°23' W 071°03'0 0.0
2015-Aug-01 15:15N 42°23' W 071°03'0 0.0
2015-Aug-01 10:19N 42°23' W 071°03'0 0.6
2015-Aug-01 09:33N 42°23' W 071°03'0 0.0
2015-Aug-01 06:14N 42°23' W 071°03'1 0.2
2015-Aug-01 02:33N 42°23' W 071°02'2 0.7
2015-Aug-01 00:18N 42°22' W 071°02'1 0.4
2015-Jul-31 21:22N 42°23' W 071°03'0 0.0
2015-Jul-31 20:19N 42°23' W 071°03'0 0.0
2015-Jul-31 19:31N 42°23' W 071°03'0 0.0
2015-Jul-31 18:33N 42°23' W 071°03'0 0.0
2015-Jul-31 17:32N 42°23' W 071°03'1 0.6
2015-Jul-31 16:25N 42°23' W 071°02'1 0.8
2015-Jul-31 15:33N 42°23' W 071°03'1 0.5
2015-Jul-31 13:25N 42°23' W 071°01'3 2.4
2015-Jul-31 12:22N 42°21' W 071°01'1 0.6
2015-Jul-31 11:33N 42°21' W 071°02'2 2.2
2015-Jul-31 10:33N 42°23' W 071°03'0 0.2
2015-Jul-31 09:33N 42°23' W 071°03'0 0.0
2015-Jul-31 08:33N 42°23' W 071°03'2 2.5
2015-Jul-31 07:33N 42°21' W 071°01'2 2.4
2015-Jul-31 06:33N 42°20' W 070°58'4 2.0
2015-Jul-31 04:26N 42°23' W 071°03'0 0.1
2015-Jul-31 01:20N 42°23' W 071°03'0 0.2
2015-Jul-30 23:24N 42°23' W 071°03'1 0.2
2015-Jul-30 18:31N 42°23' W 071°03'0 0.0
2015-Jul-30 07:33N 42°23' W 071°04'0 0.0
2015-Jul-29 18:22N 42°23' W 071°04'1 0.2
2015-Jul-29 13:33N 42°23' W 071°03'0 0.1
2015-Jul-29 05:33N 42°23' W 071°03'0 0.1
2015-Jul-29 01:33N 42°23' W 071°03'0 0.1
2015-Jul-28 22:10N 42°23' W 071°03'0 0.2
2015-Jul-28 20:33N 42°23' W 071°03'1 0.3
2015-Jul-28 18:32N 42°23' W 071°04'1 0.2
2015-Jul-28 15:05N 42°23' W 071°03'0 0.0
2015-Jul-28 13:19N 42°23' W 071°03'0 0.0
2015-Jul-28 12:24N 42°23' W 071°03'1 0.2
2015-Jul-28 10:13N 42°23' W 071°03'0 0.3
2015-Jul-28 09:34N 42°23' W 071°03'0 0.1
2015-Jul-28 08:13N 42°23' W 071°03'1 0.1
2015-Jul-28 03:32N 42°22' W 071°03'0 0.2
2015-Jul-28 01:31N 42°23' W 071°03'0 0.0
2015-Jul-28 00:31N 42°23' W 071°03'0 0.0
2015-Jul-27 17:29N 42°23' W 071°03'0 0.0
2015-Jul-27 04:15N 42°23' W 071°03'1 1.4
2015-Jul-27 03:15N 42°24' W 071°01'1 1.4
2015-Jul-27 02:20N 42°23' W 071°03'0 0.5
2015-Jul-27 01:33N 42°23' W 071°03'0 0.2
2015-Jul-27 00:31N 42°23' W 071°03'2 1.6
2015-Jul-26 23:31N 42°22' W 071°03'1 0.5
2015-Jul-26 21:30N 42°23' W 071°03'1 0.5
2015-Jul-26 19:32N 42°22' W 071°03'1 0.1
2015-Jul-26 15:08N 42°21' W 071°02'2 4.2
2015-Jul-26 14:33N 42°23' W 071°04'2 0.7
2015-Jul-26 11:33N 42°21' W 071°02'1 0.5
2015-Jul-26 08:33N 42°23' W 071°03'1 1.0
2015-Jul-26 07:33N 42°23' W 071°04'1 0.1
2015-Jul-25 20:26N 42°23' W 071°03'1 1.0
2015-Jul-25 19:14N 42°22' W 071°02'2 0.9
2015-Jul-25 17:27N 42°23' W 071°03'0 0.0
2015-Jul-25 04:26N 42°23' W 071°03'0 0.0
2015-Jul-25 00:12N 42°23' W 071°03'  

Dump ship's entire track history